Time;durP1;ratioP1;P1;durP2;ratioP2;P2;SDS_P1;SDS_P2;PMS_P1;PMS_P2;Temp;Humidity;BMP_temperature;BMP_pressure;BME280_temperature;BME280_humidity;BME280_pressure;Samples;Min_cycle;Max_cycle;Signal;HPM_P1;HPM_P2
2022/05/26 00:06:27;;;;;;;1.63;1.00;;;12.40;99.90;;;;;;20663425;28;20045;-76
2022/05/26 00:16:28;;;;;;;3.23;1.23;;;12.20;99.90;;;;;;20613208;28;20077;-77
2022/05/26 00:26:29;;;;;;;2.13;0.90;;;11.80;99.90;;;;;;20631850;28;20066;-77
2022/05/26 00:36:39;;;;;;;3.93;0.90;;;11.70;99.90;;;;;;20560789;28;20051;-77
2022/05/26 00:46:55;;;;;;;1.88;1.10;;;11.70;99.90;;;;;;20605033;28;20059;-76
2022/05/26 00:57:16;;;;;;;3.55;0.80;;;11.60;99.90;;;;;;20627534;28;20533;-77
2022/05/26 01:07:23;;;;;;;1.48;0.77;;;11.60;99.90;;;;;;20635234;28;20038;-77
2022/05/26 01:17:47;;;;;;;1.15;0.85;;;11.60;99.90;;;;;;20638190;28;20125;-77
2022/05/26 01:28:33;;;;;;;2.28;0.80;;;11.60;99.90;;;;;;20641820;28;20039;-77
2022/05/26 01:38:50;;;;;;;5.50;1.10;;;11.50;99.90;;;;;;20593515;28;20090;-77
2022/05/26 01:48:58;;;;;;;5.22;0.85;;;11.50;99.90;;;;;;20607365;28;20039;-78
2022/05/26 01:59:12;;;;;;;1.75;1.00;;;11.40;99.90;;;;;;20608321;28;20047;-76
2022/05/26 02:09:20;;;;;;;4.05;1.20;;;11.70;99.90;;;;;;20611475;28;20039;-77
2022/05/26 02:19:37;;;;;;;1.70;0.90;;;11.90;99.90;;;;;;20606978;23;20150;-78
2022/05/26 02:29:55;;;;;;;1.95;0.98;;;12.10;99.90;;;;;;20863223;28;20075;-77
2022/05/26 02:39:56;;;;;;;2.80;0.98;;;12.10;99.90;;;;;;20849302;28;20061;-77
2022/05/26 02:50:18;;;;;;;2.17;1.20;;;12.10;99.90;;;;;;20849744;28;20029;-78
2022/05/26 03:00:59;;;;;;;3.28;1.00;;;12.00;99.90;;;;;;20833676;28;20044;-77
2022/05/26 03:11:12;;;;;;;2.42;1.00;;;11.80;99.90;;;;;;20845340;28;20036;-78
2022/05/26 03:21:14;;;;;;;2.17;1.38;;;11.50;99.90;;;;;;20847518;28;20151;-77
2022/05/26 03:31:14;;;;;;;2.92;1.98;;;11.40;99.90;;;;;;20843835;28;20095;-78
2022/05/26 03:41:20;;;;;;;3.20;0.80;;;11.20;99.90;;;;;;20845619;28;20479;-78
2022/05/26 03:51:21;;;;;;;7.65;1.33;;;11.10;99.90;;;;;;20846092;28;20071;-76
2022/05/26 04:01:22;;;;;;;2.00;1.10;;;10.90;99.90;;;;;;20839759;28;20514;-77
2022/05/26 04:11:24;;;;;;;1.87;1.03;;;10.90;99.90;;;;;;20831553;28;20025;-77
2022/05/26 04:21:24;;;;;;;;;;;10.70;99.90;;;;;;20831196;28;20030;-77
2022/05/26 04:31:25;;;;;;;4.10;0.90;;;10.80;99.90;;;;;;20831983;28;20298;-77
2022/05/26 04:41:26;;;;;;;4.17;0.87;;;10.90;99.90;;;;;;20832341;28;20785;-77
2022/05/26 04:51:27;;;;;;;4.63;1.00;;;11.10;99.90;;;;;;20830761;28;20507;-78
2022/05/26 05:01:27;;;;;;;3.00;1.27;;;11.40;99.90;;;;;;20828384;28;20026;-77
2022/05/26 05:11:29;;;;;;;5.20;1.10;;;11.50;99.90;;;;;;20847565;28;20057;-77
2022/05/26 05:21:39;;;;;;;2.60;1.30;;;11.80;99.90;;;;;;20845500;28;20044;-77
2022/05/26 05:31:45;;;;;;;3.60;1.42;;;12.20;99.90;;;;;;20855961;28;20095;-77
2022/05/26 05:41:46;;;;;;;3.95;1.30;;;12.50;99.90;;;;;;20843179;28;20038;-77
2022/05/26 05:51:47;;;;;;;5.30;2.53;;;13.00;99.90;;;;;;20821245;28;20025;-77
2022/05/26 06:01:48;;;;;;;4.27;1.60;;;13.00;99.90;;;;;;20837721;28;20030;-77
2022/05/26 06:11:49;;;;;;;2.83;1.70;;;13.00;99.90;;;;;;20819326;28;20041;-77
2022/05/26 06:21:50;;;;;;;4.77;1.80;;;13.00;99.90;;;;;;20838723;28;20511;-77
2022/05/26 06:42:10;;;;;;;2.88;1.35;;;13.80;99.90;;;;;;20836667;28;20084;-77
2022/05/26 06:52:13;;;;;;;2.70;0.80;;;14.50;99.90;;;;;;20842300;28;20531;-78
2022/05/26 07:02:14;;;;;;;1.00;0.73;;;14.60;99.90;;;;;;20823657;28;20087;-78
2022/05/26 07:12:15;;;;;;;4.57;1.07;;;15.50;99.90;;;;;;20816533;28;20036;-78
2022/05/26 07:22:16;;;;;;;2.30;0.80;;;16.60;99.90;;;;;;20909861;28;20333;-79
2022/05/26 07:32:16;;;;;;;13.93;4.53;;;17.30;99.90;;;;;;20816662;28;20045;-78
2022/05/26 07:42:22;;;;;;;3.27;0.90;;;17.60;99.90;;;;;;20833914;28;20036;-78
2022/05/26 07:52:23;;;;;;;2.88;0.60;;;17.30;99.90;;;;;;20881713;28;20049;-76
2022/05/26 08:02:24;;;;;;;4.07;0.77;;;17.70;99.90;;;;;;20889608;28;20082;-76
2022/05/26 08:12:25;;;;;;;4.47;0.60;;;18.20;99.90;;;;;;20818775;28;20040;-76
2022/05/26 08:22:26;;;;;;;8.57;0.53;;;18.60;99.90;;;;;;20811972;28;20435;-76
2022/05/26 08:32:27;;;;;;;1.57;0.57;;;19.30;99.90;;;;;;20836225;28;20026;-76
2022/05/26 08:42:31;;;;;;;2.03;0.60;;;19.40;99.90;;;;;;20835148;28;20039;-76
2022/05/26 08:52:44;;;;;;;0.60;0.40;;;20.30;99.90;;;;;;20904896;28;20037;-76
2022/05/26 09:02:45;;;;;;;2.42;0.50;;;19.60;99.90;;;;;;20824299;28;20427;-74
2022/05/26 09:13:03;;;;;;;;;;;21.20;99.90;;;;;;20808676;28;20036;-75
2022/05/26 09:23:11;;;;;;;4.15;0.40;;;21.50;99.90;;;;;;20824886;28;19990;-75
2022/05/26 09:33:31;;;;;;;10.98;0.70;;;22.30;99.90;;;;;;20819569;28;20559;-75
2022/05/26 09:43:32;;;;;;;2.25;0.55;;;21.90;99.90;;;;;;20815623;28;20029;-75
2022/05/26 09:53:39;;;;;;;3.93;1.20;;;21.30;99.90;;;;;;20818501;28;20037;-76
2022/05/26 10:03:57;;;;;;;2.38;0.50;;;22.10;99.90;;;;;;20816365;28;20523;-75
2022/05/26 10:14:05;;;;;;;6.10;0.77;;;21.20;99.90;;;;;;20819402;28;20041;-76
2022/05/26 10:24:15;;;;;;;1.50;0.30;;;20.80;99.90;;;;;;20797755;28;20106;-76
2022/05/26 10:35:08;;;;;;;2.28;0.55;;;20.60;99.90;;;;;;20826884;28;20037;-76
2022/05/26 10:45:12;;;;;;;3.42;0.30;;;22.10;99.90;;;;;;20791133;28;20136;-75
2022/05/26 10:55:20;;;;;;;1.38;0.30;;;22.90;99.90;;;;;;20811500;28;20033;-76
2022/05/26 11:05:45;;;;;;;0.20;0.20;;;23.30;99.90;;;;;;20810266;28;20030;-76
2022/05/26 11:26:38;;;;;;;0.95;0.30;;;22.30;99.90;;;;;;20808795;28;20037;-76
2022/05/26 11:36:46;;;;;;;1.13;0.40;;;22.80;99.90;;;;;;20851449;28;20041;-76
2022/05/26 11:46:50;;;;;;;1.90;0.40;;;22.50;99.90;;;;;;20806413;28;20071;-76
2022/05/26 11:56:51;;;;;;;3.80;0.60;;;23.30;99.90;;;;;;20809147;28;20362;-76
2022/05/26 12:07:15;;;;;;;0.83;0.30;;;23.30;99.90;;;;;;20799754;28;20104;-75
2022/05/26 12:17:33;;;;;;;1.02;0.38;;;21.80;99.90;;;;;;20794089;28;20041;-76
2022/05/26 12:27:55;;;;;;;1.60;0.63;;;23.60;99.90;;;;;;20818743;28;20116;-75
2022/05/26 12:38:18;;;;;;;3.65;0.70;;;22.90;99.90;;;;;;20834168;28;20040;-77
2022/05/26 12:48:50;;;;;;;2.40;0.40;;;23.30;99.90;;;;;;20844105;28;20037;-75
2022/05/26 12:58:59;;;;;;;1.33;0.30;;;23.60;99.90;;;;;;20816237;28;20067;-75
2022/05/26 13:09:12;;;;;;;1.70;0.40;;;22.90;99.90;;;;;;20786251;28;20037;-75
2022/05/26 13:19:16;;;;;;;0.70;0.38;;;22.20;99.90;;;;;;20827463;28;20449;-75
2022/05/26 13:29:19;;;;;;;2.15;0.40;;;23.70;99.90;;;;;;20822267;28;20075;-76
2022/05/26 13:39:24;;;;;;;2.05;0.50;;;24.60;99.90;;;;;;20830607;28;20120;-75
2022/05/26 13:49:58;;;;;;;0.30;0.30;;;23.60;99.90;;;;;;20837191;28;20049;-75
2022/05/26 14:00:02;;;;;;;2.42;0.50;;;21.60;99.90;;;;;;20841333;28;20083;-75
2022/05/26 14:10:17;;;;;;;2.72;0.30;;;22.10;99.90;;;;;;20836579;28;20154;-75
2022/05/26 14:20:26;;;;;;;1.10;0.50;;;22.90;99.90;;;;;;20816271;22;20148;-72
2022/05/26 14:30:38;;;;;;;0.47;0.22;;;23.10;99.90;;;;;;20911992;28;20036;-72
2022/05/26 14:40:38;;;;;;;;;;;22.10;99.90;;;;;;20915183;28;20502;-72
2022/05/26 14:50:39;;;;;;;4.07;0.47;;;21.80;99.90;;;;;;20914238;28;19999;-73
2022/05/26 15:00:43;;;;;;;;;;;23.10;99.90;;;;;;20913650;28;20035;-73
2022/05/26 15:10:44;;;;;;;0.80;0.50;;;23.00;99.90;;;;;;20912507;28;19908;-72
2022/05/26 15:20:45;;;;;;;1.53;0.40;;;22.50;99.90;;;;;;20913870;28;20035;-73
2022/05/26 15:30:49;;;;;;;1.73;0.37;;;22.50;99.90;;;;;;20912526;28;20037;-72
2022/05/26 15:40:50;;;;;;;3.30;0.40;;;22.40;99.90;;;;;;20910730;28;20291;-73
2022/05/26 15:50:51;;;;;;;3.60;0.63;;;22.60;99.90;;;;;;20910554;28;20079;-73
2022/05/26 16:00:54;;;;;;;1.70;0.40;;;21.50;99.90;;;;;;20908624;28;20064;-73
2022/05/26 16:10:55;;;;;;;1.80;0.50;;;21.50;99.90;;;;;;20908745;28;20028;-72
2022/05/26 16:20:56;;;;;;;0.98;0.40;;;21.60;99.90;;;;;;20907578;28;20051;-72
2022/05/26 16:30:57;;;;;;;1.30;0.40;;;21.50;99.90;;;;;;20907916;28;20166;-72
2022/05/26 16:40:58;;;;;;;2.70;0.40;;;21.40;99.90;;;;;;20907185;28;20025;-73
2022/05/26 16:51:01;;;;;;;1.73;0.80;;;21.40;99.90;;;;;;20913094;28;20171;-73
2022/05/26 17:01:03;;;;;;;1.10;0.60;;;21.50;99.90;;;;;;20922642;28;20491;-72
2022/05/26 17:11:04;;;;;;;1.05;0.40;;;21.10;99.90;;;;;;20904182;28;20033;-73
2022/05/26 17:21:09;;;;;;;1.43;0.50;;;21.40;99.90;;;;;;20921617;28;20495;-72
2022/05/26 17:31:10;;;;;;;1.60;0.60;;;21.20;99.90;;;;;;20920371;28;20033;-72
2022/05/26 17:41:37;;;;;;;1.57;0.40;;;20.80;99.90;;;;;;20922506;28;20364;-72
2022/05/26 17:51:40;;;;;;;3.05;0.82;;;20.60;99.90;;;;;;20919189;28;20110;-72
2022/05/26 18:01:42;;;;;;;0.70;0.38;;;21.50;99.90;;;;;;20917709;28;20033;-72
2022/05/26 18:11:43;;;;;;;1.10;0.63;;;23.20;99.90;;;;;;20917711;28;20029;-72
2022/05/26 18:21:46;;;;;;;0.82;0.40;;;22.60;99.90;;;;;;20916700;28;20395;-72
2022/05/26 18:31:49;;;;;;;4.75;0.60;;;20.70;99.90;;;;;;20915602;28;20040;-72
2022/05/26 18:41:50;;;;;;;2.47;0.47;;;20.50;99.90;;;;;;20915566;28;20079;-72
2022/05/26 18:51:51;;;;;;;;;;;19.60;99.90;;;;;;20915207;28;20029;-72
2022/05/26 19:01:52;;;;;;;1.15;0.60;;;18.80;99.90;;;;;;20913111;28;19995;-71
2022/05/26 19:11:54;;;;;;;0.57;0.52;;;18.10;99.90;;;;;;20911658;28;20037;-73
2022/05/26 19:21:55;;;;;;;1.85;0.75;;;17.30;99.90;;;;;;20911162;28;20055;-73
2022/05/26 19:31:58;;;;;;;1.00;0.77;;;16.40;99.90;;;;;;20911658;28;20048;-73
2022/05/26 19:42:00;;;;;;;1.20;0.93;;;15.80;99.90;;;;;;20910137;28;20451;-73
2022/05/26 19:52:01;;;;;;;3.25;0.90;;;15.50;99.90;;;;;;20909282;28;20029;-73
2022/05/26 20:02:02;;;;;;;3.03;0.87;;;15.30;99.90;;;;;;20908690;28;20029;-73
2022/05/26 20:12:03;;;;;;;2.50;0.80;;;15.30;99.90;;;;;;20907576;28;20491;-72
2022/05/26 20:22:04;;;;;;;1.00;0.60;;;15.00;99.90;;;;;;20912879;22;20565;-75
2022/05/26 20:32:05;;;;;;;1.83;0.93;;;14.70;99.90;;;;;;20831149;28;20022;-76
2022/05/26 20:42:07;;;;;;;2.10;1.07;;;14.40;99.90;;;;;;20825508;28;20030;-75
2022/05/26 20:52:12;;;;;;;1.42;0.80;;;14.30;99.90;;;;;;20824480;28;20030;-76
2022/05/26 21:02:13;;;;;;;4.22;1.05;;;14.60;99.90;;;;;;20824294;28;20044;-76
2022/05/26 21:12:14;;;;;;;1.05;0.82;;;14.20;99.90;;;;;;20822935;28;20029;-78
2022/05/26 21:22:15;;;;;;;1.50;1.00;;;13.80;99.90;;;;;;20822533;28;20558;-77
2022/05/26 21:32:16;;;;;;;1.50;1.03;;;13.70;99.90;;;;;;20822836;28;20404;-76
2022/05/26 21:42:20;;;;;;;3.13;0.80;;;13.50;99.90;;;;;;20836590;28;20105;-76
2022/05/26 21:52:22;;;;;;;5.07;1.20;;;13.30;99.90;;;;;;20836200;28;20120;-77
2022/05/26 22:02:23;;;;;;;7.57;3.60;;;13.00;99.90;;;;;;20835132;28;20526;-78
2022/05/26 22:12:28;;;;;;;1.07;0.77;;;12.90;99.90;;;;;;20835966;28;20033;-77
2022/05/26 22:22:29;;;;;;;3.78;1.23;;;12.90;99.90;;;;;;20844521;28;20042;-77
2022/05/26 22:32:32;;;;;;;1.43;0.93;;;12.60;99.90;;;;;;20835350;28;20479;-77
2022/05/26 22:42:45;;;;;;;1.42;0.80;;;12.60;99.90;;;;;;20832782;28;20029;-75
2022/05/26 22:52:48;;;;;;;2.60;1.17;;;12.50;99.90;;;;;;20832354;28;20037;-76
2022/05/26 23:02:50;;;;;;;3.28;0.93;;;12.20;99.90;;;;;;20832855;28;20036;-76
2022/05/26 23:12:54;;;;;;;2.20;0.90;;;12.40;99.90;;;;;;20831821;28;20030;-79
2022/05/26 23:22:54;;;;;;;2.55;1.33;;;12.60;99.90;;;;;;20831145;28;20044;-77
2022/05/26 23:32:56;;;;;;;2.47;1.10;;;12.00;99.90;;;;;;20829947;28;20030;-76
2022/05/26 23:53:16;;;;;;;1.42;1.20;;;11.60;99.90;;;;;;20813732;28;20056;-78
